createdAt,value
2022-08-14T00:01:59.039Z,99.90
2022-08-14T00:04:35.918Z,99.90
2022-08-14T00:07:10.268Z,99.90
2022-08-14T00:09:39.588Z,99.90
2022-08-14T00:12:23.817Z,99.90
2022-08-14T00:14:55.019Z,99.90
2022-08-14T00:17:22.741Z,99.90
2022-08-14T00:19:49.686Z,99.90
2022-08-14T00:22:22.109Z,99.90
2022-08-14T00:25:07.969Z,99.90
2022-08-14T00:27:35.301Z,99.90
2022-08-14T00:30:08.808Z,99.90
2022-08-14T00:32:52.038Z,99.90
2022-08-14T00:36:33.818Z,99.90
2022-08-14T00:38:10.137Z,99.90
2022-08-14T00:40:36.936Z,99.90
2022-08-14T00:43:04.334Z,99.90
2022-08-14T00:45:31.498Z,99.90
2022-08-14T00:47:59.914Z,99.90
2022-08-14T00:50:28.732Z,99.90
2022-08-14T00:52:56.329Z,99.90
2022-08-14T00:55:23.342Z,99.90
2022-08-14T00:58:10.412Z,99.90
2022-08-14T01:00:47.566Z,99.90
2022-08-14T01:03:19.236Z,99.90
2022-08-14T01:05:52.059Z,99.90
2022-08-14T01:08:51.181Z,99.90
2022-08-14T01:11:19.165Z,99.90
2022-08-14T01:13:50.670Z,99.90
2022-08-14T01:16:28.222Z,99.90
2022-08-14T01:19:17.087Z,99.90
2022-08-14T01:21:53.535Z,99.90
2022-08-14T01:24:28.742Z,99.90
2022-08-14T01:26:58.000Z,99.90
2022-08-14T01:29:58.223Z,99.90
2022-08-14T01:32:15.608Z,99.90
2022-08-14T01:35:17.798Z,99.90
2022-08-14T01:37:38.094Z,99.90
2022-08-14T01:40:11.287Z,99.90
2022-08-14T01:42:42.874Z,99.90
2022-08-14T01:45:17.966Z,99.90
2022-08-14T01:47:52.375Z,99.90
2022-08-14T01:50:30.673Z,99.90
2022-08-14T01:53:01.508Z,99.90
2022-08-14T01:55:31.370Z,99.90
2022-08-14T01:58:18.342Z,99.90
2022-08-14T02:00:48.072Z,99.90
2022-08-14T02:03:15.985Z,99.90
2022-08-14T02:05:42.715Z,99.90
2022-08-14T02:08:10.591Z,99.90
2022-08-14T02:10:46.690Z,99.90
2022-08-14T02:13:16.261Z,99.90
2022-08-14T02:15:44.373Z,99.90
2022-08-14T02:18:11.757Z,99.90
2022-08-14T02:20:42.049Z,99.90
2022-08-14T02:23:09.122Z,99.90
2022-08-14T02:25:36.226Z,99.90
2022-08-14T02:28:23.805Z,99.90
2022-08-14T02:30:52.353Z,99.90
2022-08-14T02:33:20.538Z,99.90
2022-08-14T02:35:52.959Z,99.90
2022-08-14T02:38:30.348Z,99.90
2022-08-14T02:41:00.978Z,99.90
2022-08-14T02:43:36.727Z,99.90
2022-08-14T02:46:13.000Z,99.90
2022-08-14T02:49:03.985Z,99.90
2022-08-14T02:51:30.225Z,99.90
2022-08-14T02:53:58.324Z,99.90
2022-08-14T02:56:30.239Z,99.90
2022-08-14T02:59:17.110Z,99.90
2022-08-14T03:01:51.015Z,99.90
2022-08-14T03:04:21.695Z,99.90
2022-08-14T03:06:58.022Z,99.90
2022-08-14T03:10:25.253Z,99.90
2022-08-14T03:12:31.677Z,99.90
2022-08-14T03:15:03.183Z,99.90
2022-08-14T03:17:31.932Z,99.90
2022-08-14T03:20:11.371Z,99.90
2022-08-14T03:22:41.900Z,99.90
2022-08-14T03:25:10.020Z,99.90
2022-08-14T03:27:48.245Z,99.90
2022-08-14T03:30:24.922Z,99.90
2022-08-14T03:33:08.071Z,99.90
2022-08-14T03:35:37.429Z,99.90
2022-08-14T03:39:12.265Z,99.90
2022-08-14T03:40:58.395Z,99.90
2022-08-14T03:43:28.546Z,99.90
2022-08-14T03:46:00.417Z,99.90
2022-08-14T03:48:31.007Z,99.90
2022-08-14T03:50:58.746Z,99.90
2022-08-14T03:53:26.320Z,99.90
2022-08-14T03:55:56.074Z,99.90
2022-08-14T03:58:36.271Z,99.90
2022-08-14T04:01:04.212Z,99.90
2022-08-14T04:03:37.223Z,99.90
2022-08-14T04:06:04.850Z,99.90
2022-08-14T04:08:35.079Z,99.90
2022-08-14T04:11:03.017Z,99.90
2022-08-14T04:13:36.229Z,99.90
2022-08-14T04:16:12.430Z,99.90
2022-08-14T04:18:44.019Z,99.90
2022-08-14T04:21:11.170Z,99.90
2022-08-14T04:23:39.661Z,99.90
2022-08-14T04:26:08.651Z,99.90
2022-08-14T04:29:01.923Z,99.90
2022-08-14T04:32:57.751Z,99.90
2022-08-14T04:34:24.240Z,99.90
2022-08-14T04:37:13.526Z,99.90
2022-08-14T04:40:08.792Z,99.90
2022-08-14T04:42:54.659Z,99.90
2022-08-14T04:45:23.526Z,99.90
2022-08-14T04:48:10.297Z,99.90
2022-08-14T04:50:44.425Z,99.90
2022-08-14T04:53:12.955Z,99.90
2022-08-14T04:55:49.837Z,99.90
2022-08-14T04:58:22.050Z,99.90
2022-08-14T05:00:59.466Z,99.90
2022-08-14T05:03:28.343Z,99.90
2022-08-14T05:05:56.289Z,99.90
2022-08-14T05:08:31.742Z,99.90
2022-08-14T05:11:13.388Z,99.90
2022-08-14T05:13:59.525Z,99.90
2022-08-14T05:16:29.352Z,99.90
2022-08-14T05:19:17.930Z,99.90
2022-08-14T05:21:56.521Z,99.90
2022-08-14T05:24:25.386Z,99.90
2022-08-14T05:26:52.137Z,99.90
2022-08-14T05:29:20.381Z,99.90
2022-08-14T05:31:47.473Z,99.90
2022-08-14T05:34:14.166Z,99.90
2022-08-14T05:36:42.947Z,99.90
2022-08-14T05:39:17.515Z,99.90
2022-08-14T05:41:53.935Z,99.90
2022-08-14T05:44:21.070Z,99.90
2022-08-14T05:46:48.240Z,99.90
2022-08-14T05:49:15.509Z,99.90
2022-08-14T05:51:46.752Z,99.90
2022-08-14T05:54:20.652Z,99.90
2022-08-14T05:56:54.316Z,99.90
2022-08-14T05:59:36.405Z,99.90
2022-08-14T06:02:05.996Z,99.90
2022-08-14T06:04:32.862Z,99.90
2022-08-14T06:06:59.547Z,99.90
2022-08-14T06:09:26.510Z,99.90
2022-08-14T06:11:53.333Z,99.90
2022-08-14T06:14:24.049Z,99.90
2022-08-14T06:16:52.991Z,99.90
2022-08-14T06:19:20.408Z,99.90
2022-08-14T06:21:55.816Z,99.90
2022-08-14T06:24:26.061Z,99.90
2022-08-14T06:26:56.710Z,99.90
2022-08-14T06:29:32.148Z,99.90
2022-08-14T06:32:36.855Z,99.90
2022-08-14T06:35:03.560Z,99.90
2022-08-14T06:37:45.441Z,99.90
2022-08-14T06:40:26.101Z,99.90
2022-08-14T06:43:00.415Z,99.90
2022-08-14T06:45:31.294Z,99.90
2022-08-14T06:47:58.787Z,99.90
2022-08-14T06:50:30.170Z,99.90
2022-08-14T06:52:58.375Z,99.90
2022-08-14T06:55:27.822Z,99.90
2022-08-14T06:57:56.453Z,99.90
2022-08-14T07:00:27.011Z,99.90
2022-08-14T07:03:13.237Z,99.90
2022-08-14T07:05:55.710Z,99.90
2022-08-14T07:08:29.645Z,99.90
2022-08-14T07:10:59.593Z,99.90
2022-08-14T07:13:28.387Z,99.90
2022-08-14T07:15:56.583Z,99.90
2022-08-14T07:18:29.757Z,99.90
2022-08-14T07:20:57.860Z,99.90
2022-08-14T07:23:25.857Z,99.90
2022-08-14T07:25:53.853Z,99.90
2022-08-14T07:28:25.301Z,99.90
2022-08-14T07:30:56.215Z,99.90
2022-08-14T07:33:24.810Z,99.90
2022-08-14T07:35:58.304Z,99.90
2022-08-14T07:38:32.142Z,99.90
2022-08-14T07:41:02.675Z,99.90
2022-08-14T07:43:29.845Z,99.90
2022-08-14T07:45:56.606Z,99.90
2022-08-14T07:48:25.282Z,99.90
2022-08-14T07:50:52.827Z,99.90
2022-08-14T07:53:22.518Z,99.90
2022-08-14T07:56:00.187Z,99.90
2022-08-14T07:58:34.585Z,99.90
2022-08-14T08:01:06.960Z,99.90
2022-08-14T08:03:40.049Z,99.90
2022-08-14T08:06:17.544Z,99.90
2022-08-14T08:08:47.366Z,99.90
2022-08-14T08:11:30.159Z,99.90
2022-08-14T08:14:06.279Z,99.90
2022-08-14T08:16:38.251Z,99.90
2022-08-14T08:19:12.527Z,99.90
2022-08-14T08:21:39.607Z,99.90
2022-08-14T08:24:10.854Z,99.90
2022-08-14T08:26:39.308Z,99.90
2022-08-14T08:29:07.156Z,99.90
2022-08-14T08:31:35.164Z,99.90
2022-08-14T08:34:04.555Z,99.90
2022-08-14T08:36:41.871Z,99.90
2022-08-14T08:39:14.756Z,99.90
2022-08-14T08:41:44.359Z,99.90
2022-08-14T08:44:17.048Z,99.90
2022-08-14T08:46:59.979Z,99.90
2022-08-14T08:49:36.158Z,99.90
2022-08-14T08:52:04.555Z,99.90
2022-08-14T08:54:31.661Z,99.90
2022-08-14T08:56:59.804Z,99.90
2022-08-14T08:59:31.059Z,99.90
2022-08-14T09:02:04.052Z,99.90
2022-08-14T09:04:36.270Z,99.90
2022-08-14T09:07:14.446Z,99.90
2022-08-14T09:09:54.499Z,99.90
2022-08-14T09:12:26.937Z,99.90
2022-08-14T09:14:55.692Z,99.90
2022-08-14T09:17:25.848Z,99.90
2022-08-14T09:19:53.600Z,99.90
2022-08-14T09:22:35.580Z,99.90
2022-08-14T09:25:07.505Z,99.90
2022-08-14T09:27:35.497Z,99.90
2022-08-14T09:30:30.783Z,99.90
2022-08-14T09:32:59.300Z,99.90
2022-08-14T09:35:45.478Z,99.90
2022-08-14T09:38:30.988Z,99.90
2022-08-14T09:41:16.501Z,99.90
2022-08-14T09:43:55.146Z,99.90
2022-08-14T09:46:27.726Z,99.90
2022-08-14T09:48:58.503Z,99.90
2022-08-14T09:51:26.106Z,99.90
2022-08-14T09:54:18.074Z,99.90
2022-08-14T09:56:51.658Z,99.90
2022-08-14T09:59:25.527Z,99.90
2022-08-14T10:01:57.169Z,99.90
2022-08-14T10:04:33.941Z,99.90
2022-08-14T10:07:01.974Z,99.90
2022-08-14T10:09:33.619Z,99.90
2022-08-14T10:12:04.785Z,99.90
2022-08-14T10:14:36.081Z,99.90
2022-08-14T10:17:06.011Z,99.90
2022-08-14T10:19:35.275Z,99.90
2022-08-14T10:23:12.612Z,99.90
2022-08-14T10:25:00.561Z,99.90
2022-08-14T10:27:28.023Z,99.90
2022-08-14T10:29:55.836Z,99.90
2022-08-14T10:32:36.129Z,99.90
2022-08-14T10:35:05.383Z,99.90
2022-08-14T10:37:38.756Z,99.90
2022-08-14T10:40:32.518Z,99.90
2022-08-14T10:42:55.498Z,99.90
2022-08-14T10:45:23.542Z,99.90
2022-08-14T10:48:09.401Z,99.90
2022-08-14T10:50:41.384Z,99.90
2022-08-14T10:53:09.426Z,99.90
2022-08-14T10:55:45.397Z,99.90
2022-08-14T10:58:14.126Z,99.90
2022-08-14T11:00:46.922Z,99.90
2022-08-14T11:03:20.028Z,99.90
2022-08-14T11:06:10.976Z,99.90
2022-08-14T11:08:40.075Z,99.90
2022-08-14T11:11:07.684Z,99.90
2022-08-14T11:13:38.298Z,99.90
2022-08-14T11:16:05.121Z,99.90
2022-08-14T11:18:37.081Z,99.90
2022-08-14T11:21:08.411Z,99.90
2022-08-14T11:23:40.961Z,99.90
2022-08-14T11:26:11.348Z,99.90
2022-08-14T11:28:47.873Z,99.90
2022-08-14T11:31:20.071Z,99.90
2022-08-14T11:33:51.931Z,99.90
2022-08-14T11:36:22.716Z,99.90
2022-08-14T11:38:49.652Z,99.90
2022-08-14T11:41:18.461Z,99.90
2022-08-14T11:43:56.215Z,99.90
2022-08-14T11:46:30.585Z,99.90
2022-08-14T11:49:05.599Z,99.90
2022-08-14T11:51:36.040Z,99.90
2022-08-14T11:54:04.636Z,99.90
2022-08-14T11:56:36.067Z,99.90
2022-08-14T11:59:02.835Z,99.90
2022-08-14T12:01:33.534Z,99.90
2022-08-14T12:04:21.410Z,99.90
2022-08-14T12:06:52.333Z,99.90
2022-08-14T12:09:32.272Z,99.90
2022-08-14T12:11:59.596Z,99.90
2022-08-14T12:14:34.819Z,99.90
2022-08-14T12:17:09.530Z,99.90
2022-08-14T12:19:53.913Z,99.90
2022-08-14T12:22:40.263Z,99.90
2022-08-14T12:25:11.757Z,99.90
2022-08-14T12:27:51.920Z,99.90
2022-08-14T12:30:42.427Z,99.90
2022-08-14T12:33:31.309Z,99.90
2022-08-14T12:36:04.552Z,99.90
2022-08-14T12:38:36.521Z,99.90
2022-08-14T12:41:09.011Z,99.90
2022-08-14T12:43:45.044Z,99.90
2022-08-14T12:46:27.558Z,99.90
2022-08-14T12:48:56.492Z,99.90
2022-08-14T12:51:27.233Z,99.90
2022-08-14T12:53:54.973Z,99.90
2022-08-14T12:56:33.303Z,99.90
2022-08-14T12:59:01.469Z,99.90
2022-08-14T13:01:31.195Z,99.90
2022-08-14T13:04:07.216Z,99.90
2022-08-14T13:06:38.055Z,99.90
2022-08-14T13:09:11.157Z,99.90
2022-08-14T13:11:41.417Z,99.90
2022-08-14T13:14:17.541Z,99.90
2022-08-14T13:16:45.655Z,99.90
2022-08-14T13:19:18.466Z,99.90
2022-08-14T13:22:05.889Z,99.90
2022-08-14T13:24:36.671Z,99.90
2022-08-14T13:27:05.074Z,99.90
2022-08-14T13:29:35.811Z,99.60
2022-08-14T13:32:05.515Z,99.90
2022-08-14T13:34:33.400Z,99.90
2022-08-14T13:37:03.748Z,99.90
2022-08-14T13:39:36.194Z,99.90
2022-08-14T13:42:10.932Z,99.90
2022-08-14T13:44:42.733Z,99.50
2022-08-14T13:47:10.676Z,99.30
2022-08-14T13:49:40.171Z,99.10
2022-08-14T13:52:48.348Z,97.10
2022-08-14T13:54:58.323Z,98.90
2022-08-14T13:57:30.226Z,99.40
2022-08-14T14:00:00.841Z,99.30
2022-08-14T14:02:33.834Z,99.60
2022-08-14T14:05:01.748Z,99.10
2022-08-14T14:07:32.013Z,98.50
2022-08-14T14:10:06.179Z,99.40
2022-08-14T14:12:40.890Z,99.70
2022-08-14T14:15:09.833Z,96.10
2022-08-14T14:17:38.973Z,98.30
2022-08-14T14:20:07.371Z,98.90
2022-08-14T14:23:02.838Z,98.30
2022-08-14T14:25:26.052Z,95.60
2022-08-14T14:28:16.817Z,97.70
2022-08-14T14:30:54.171Z,95.20
2022-08-14T14:33:45.235Z,95.50
2022-08-14T14:36:13.842Z,97.60
2022-08-14T14:38:42.218Z,96.70
2022-08-14T14:41:09.622Z,96.00
2022-08-14T14:43:44.828Z,97.20
2022-08-14T14:46:13.231Z,96.30
2022-08-14T14:48:46.799Z,96.50
2022-08-14T14:51:21.981Z,97.20
2022-08-14T14:53:49.057Z,96.40
2022-08-14T14:56:50.490Z,94.80
2022-08-14T14:59:02.616Z,96.50
2022-08-14T15:01:32.073Z,97.60
2022-08-14T15:04:00.079Z,97.60
2022-08-14T15:06:31.948Z,97.50
2022-08-14T15:09:01.838Z,98.10
2022-08-14T15:11:32.276Z,97.60
2022-08-14T15:13:59.985Z,95.10
2022-08-14T15:16:27.531Z,96.70
2022-08-14T15:18:54.374Z,96.10
2022-08-14T15:21:21.497Z,96.00
2022-08-14T15:23:50.629Z,95.20
2022-08-14T15:26:24.406Z,96.70
2022-08-14T15:29:02.754Z,97.40
2022-08-14T15:31:31.566Z,97.00
2022-08-14T15:34:43.101Z,97.40
2022-08-14T15:37:05.194Z,97.80
2022-08-14T15:39:35.548Z,97.90
2022-08-14T15:42:04.107Z,97.90
2022-08-14T15:44:52.281Z,96.80
2022-08-14T15:47:28.671Z,97.10
2022-08-14T15:49:59.316Z,97.20
2022-08-14T15:52:32.957Z,97.50
2022-08-14T15:55:07.514Z,97.70
2022-08-14T15:57:34.841Z,95.80
2022-08-14T16:00:40.186Z,97.30
2022-08-14T16:03:09.698Z,96.50
2022-08-14T16:05:38.311Z,97.40
2022-08-14T16:08:26.575Z,97.20
2022-08-14T16:10:56.989Z,95.90
2022-08-14T16:13:41.261Z,97.50
2022-08-14T16:16:34.736Z,97.50
2022-08-14T16:19:03.219Z,96.70
2022-08-14T16:21:31.771Z,96.70
2022-08-14T16:23:59.940Z,97.50
2022-08-14T16:26:29.142Z,96.50
2022-08-14T16:29:04.483Z,95.70
2022-08-14T16:31:35.621Z,96.70
2022-08-14T16:34:46.327Z,97.60
2022-08-14T16:36:53.419Z,97.70
2022-08-14T16:39:21.206Z,97.60
2022-08-14T16:41:52.128Z,97.10
2022-08-14T16:44:31.398Z,97.10
2022-08-14T16:47:01.893Z,97.50
2022-08-14T16:50:02.926Z,98.10
2022-08-14T16:52:25.963Z,98.10
2022-08-14T16:55:05.102Z,98.70
2022-08-14T16:57:34.138Z,99.30
2022-08-14T17:00:00.966Z,99.10
2022-08-14T17:02:43.725Z,98.90
2022-08-14T17:05:19.363Z,98.20
2022-08-14T17:08:07.335Z,97.80
2022-08-14T17:10:51.564Z,97.80
2022-08-14T17:13:27.322Z,98.10
2022-08-14T17:16:23.929Z,98.60
2022-08-14T17:19:00.953Z,99.20
2022-08-14T17:21:41.065Z,99.40
2022-08-14T17:24:58.415Z,99.90
2022-08-14T17:27:04.026Z,99.90
2022-08-14T17:29:33.221Z,99.90
2022-08-14T17:32:02.216Z,99.90
2022-08-14T17:34:49.137Z,99.90
2022-08-14T17:37:26.132Z,99.90
2022-08-14T17:40:15.476Z,99.90
2022-08-14T17:42:50.959Z,99.90
2022-08-14T17:45:42.867Z,99.90
2022-08-14T17:49:10.594Z,99.90
2022-08-14T17:51:14.543Z,99.90
2022-08-14T17:53:53.375Z,99.90
2022-08-14T17:56:21.088Z,99.90
2022-08-14T17:58:49.303Z,99.90
2022-08-14T18:01:17.825Z,99.90
2022-08-14T18:03:53.576Z,99.90
2022-08-14T18:06:40.231Z,99.90
2022-08-14T18:09:25.262Z,99.90
2022-08-14T18:11:57.581Z,99.90
2022-08-14T18:14:32.743Z,99.90
2022-08-14T18:17:00.833Z,99.90
2022-08-14T18:19:28.964Z,99.90
2022-08-14T18:21:57.684Z,99.90
2022-08-14T18:24:29.744Z,99.90
2022-08-14T18:27:03.027Z,99.90
2022-08-14T18:29:39.726Z,99.90
2022-08-14T18:32:29.487Z,99.90
2022-08-14T18:35:01.158Z,99.90
2022-08-14T18:37:30.908Z,99.90
2022-08-14T18:40:17.841Z,99.90
2022-08-14T18:42:46.052Z,99.90
2022-08-14T18:45:16.058Z,99.90
2022-08-14T18:48:15.975Z,99.90
2022-08-14T18:51:02.533Z,99.90
2022-08-14T18:53:34.407Z,99.90
2022-08-14T18:56:09.309Z,99.90
2022-08-14T18:58:57.325Z,99.90
2022-08-14T19:01:29.952Z,99.90
2022-08-14T19:03:57.940Z,99.90
2022-08-14T19:06:53.755Z,99.90
2022-08-14T19:09:42.244Z,99.90
2022-08-14T19:12:41.137Z,99.90
2022-08-14T19:15:19.275Z,99.90
2022-08-14T19:18:13.914Z,99.90
2022-08-14T19:20:45.402Z,99.90
2022-08-14T19:23:15.628Z,99.90
2022-08-14T19:25:51.805Z,99.90
2022-08-14T19:28:31.682Z,99.90
2022-08-14T19:31:17.680Z,99.90
2022-08-14T19:33:48.808Z,99.90
2022-08-14T19:36:31.517Z,99.90
2022-08-14T19:39:04.713Z,99.90
2022-08-14T19:41:34.040Z,99.90
2022-08-14T19:44:10.930Z,99.90
2022-08-14T19:47:01.181Z,99.90
2022-08-14T19:50:30.154Z,99.90
2022-08-14T19:52:29.660Z,99.90
2022-08-14T19:54:57.514Z,99.90
2022-08-14T19:57:26.116Z,99.90
2022-08-14T20:00:04.730Z,99.90
2022-08-14T20:02:32.337Z,99.90
2022-08-14T20:05:05.952Z,99.90
2022-08-14T20:07:59.819Z,99.90
2022-08-14T20:11:04.042Z,99.90
2022-08-14T20:13:25.192Z,99.90
2022-08-14T20:16:02.143Z,99.90
2022-08-14T20:21:15.851Z,99.90
2022-08-14T20:23:42.681Z,99.90
2022-08-14T20:26:30.663Z,99.90
2022-08-14T20:28:59.652Z,99.90
2022-08-14T20:31:36.557Z,99.90
2022-08-14T20:34:18.903Z,99.90
2022-08-14T20:37:02.305Z,99.90
2022-08-14T20:39:34.584Z,99.90
2022-08-14T20:42:30.335Z,99.90
2022-08-14T20:45:21.653Z,99.90
2022-08-14T20:48:01.250Z,99.90
2022-08-14T20:50:32.269Z,99.90
2022-08-14T20:53:00.339Z,99.90
2022-08-14T20:55:32.466Z,99.90
2022-08-14T20:58:02.403Z,99.90
2022-08-14T21:00:52.989Z,99.90
2022-08-14T21:03:28.883Z,99.90
2022-08-14T21:05:57.999Z,99.90
2022-08-14T21:08:26.105Z,99.90
2022-08-14T21:10:54.961Z,99.90
2022-08-14T21:13:27.936Z,99.90
2022-08-14T21:16:34.215Z,99.90
2022-08-14T21:18:58.819Z,99.90
2022-08-14T21:21:41.872Z,99.90
2022-08-14T21:24:10.481Z,99.90
2022-08-14T21:27:04.462Z,99.90
2022-08-14T21:29:54.227Z,99.90
2022-08-14T21:32:34.083Z,99.90
2022-08-14T21:35:06.170Z,99.90
2022-08-14T21:37:35.006Z,99.90
2022-08-14T21:40:18.841Z,99.90
2022-08-14T21:42:48.698Z,99.90
2022-08-14T21:45:15.423Z,99.90
2022-08-14T21:47:43.367Z,99.90
2022-08-14T21:50:54.911Z,99.90
2022-08-14T21:53:00.655Z,99.90
2022-08-14T21:55:31.492Z,99.90
2022-08-14T21:58:52.635Z,99.90
2022-08-14T22:00:46.489Z,99.90
2022-08-14T22:03:17.058Z,99.90
2022-08-14T22:05:45.085Z,99.90
2022-08-14T22:08:14.130Z,99.90
2022-08-14T22:10:46.436Z,99.90
2022-08-14T22:13:18.034Z,99.90
2022-08-14T22:15:50.225Z,99.90
2022-08-14T22:18:20.012Z,99.90
2022-08-14T22:20:48.389Z,99.90
2022-08-14T22:23:21.597Z,99.90
2022-08-14T22:25:50.392Z,99.90
2022-08-14T22:28:20.298Z,99.90
2022-08-14T22:30:47.624Z,99.90
2022-08-14T22:33:31.038Z,99.90
2022-08-14T22:35:59.317Z,99.90
2022-08-14T22:38:35.588Z,99.90
2022-08-14T22:41:26.911Z,99.90
2022-08-14T22:43:51.658Z,99.90
2022-08-14T22:46:20.796Z,99.90
2022-08-14T22:48:48.478Z,99.90
2022-08-14T22:51:17.892Z,99.90
2022-08-14T22:53:46.184Z,99.90
2022-08-14T22:56:20.238Z,99.90
2022-08-14T22:58:53.781Z,99.90
2022-08-14T23:01:56.637Z,99.90
2022-08-14T23:04:35.608Z,99.90
2022-08-14T23:07:04.631Z,99.90
2022-08-14T23:09:35.939Z,99.90
2022-08-14T23:12:04.941Z,99.90
2022-08-14T23:14:51.631Z,99.90
2022-08-14T23:17:18.353Z,99.90
2022-08-14T23:19:46.027Z,99.90
2022-08-14T23:22:16.862Z,99.90
2022-08-14T23:24:43.804Z,99.90
2022-08-14T23:27:27.043Z,99.90
2022-08-14T23:29:58.245Z,99.90
2022-08-14T23:32:24.937Z,99.90
2022-08-14T23:34:54.370Z,99.90
2022-08-14T23:37:27.130Z,99.90
2022-08-14T23:39:54.379Z,99.90
2022-08-14T23:42:22.381Z,99.90
2022-08-14T23:45:07.879Z,99.90
2022-08-14T23:47:52.170Z,99.90
2022-08-14T23:50:34.536Z,99.90
2022-08-14T23:53:14.486Z,99.90
2022-08-14T23:55:57.261Z,99.90
2022-08-14T23:58:29.803Z,99.90
